sensor_id;sensor_type;location;lat;lon;timestamp;pressure;altitude;pressure_sealevel;temperature;humidity
70458;BME280;57919;56.194;95.716;2023-11-22T00:02:18;102022.38;;;-16.96;62.58
70458;BME280;57919;56.194;95.716;2023-11-22T00:12:21;102035.06;;;-17.13;62.71
70458;BME280;57919;56.194;95.716;2023-11-22T00:22:24;102022.84;;;-17.40;61.98
70458;BME280;57919;56.194;95.716;2023-11-22T00:32:28;102033.66;;;-18.32;63.36
70458;BME280;57919;56.194;95.716;2023-11-22T00:42:30;102023.81;;;-18.61;63.46
70458;BME280;57919;56.194;95.716;2023-11-22T00:52:32;102046.16;;;-18.61;63.01
70458;BME280;57919;56.194;95.716;2023-11-22T01:02:35;102065.91;;;-18.62;62.63
70458;BME280;57919;56.194;95.716;2023-11-22T01:12:40;102084.97;;;-18.72;63.16
70458;BME280;57919;56.194;95.716;2023-11-22T01:22:43;102085.06;;;-18.82;63.39
70458;BME280;57919;56.194;95.716;2023-11-22T01:32:45;102072.84;;;-18.73;63.13
70458;BME280;57919;56.194;95.716;2023-11-22T01:42:47;102088.97;;;-18.28;63.12
70458;BME280;57919;56.194;95.716;2023-11-22T01:52:49;102098.16;;;-18.09;62.64
70458;BME280;57919;56.194;95.716;2023-11-22T02:02:52;102094.56;;;-17.99;62.61
70458;BME280;57919;56.194;95.716;2023-11-22T02:12:55;102100.81;;;-17.84;64.23
70458;BME280;57919;56.194;95.716;2023-11-22T02:23:01;102090.09;;;-16.38;63.11
70458;BME280;57919;56.194;95.716;2023-11-22T02:33:03;102077.72;;;-16.02;61.32
70458;BME280;57919;56.194;95.716;2023-11-22T02:43:06;102075.34;;;-15.99;60.77
70458;BME280;57919;56.194;95.716;2023-11-22T02:53:10;102086.13;;;-16.06;61.45
70458;BME280;57919;56.194;95.716;2023-11-22T03:03:13;102069.41;;;-15.70;60.82
70458;BME280;57919;56.194;95.716;2023-11-22T03:13:14;102066.44;;;-15.89;61.28
70458;BME280;57919;56.194;95.716;2023-11-22T03:23:17;102061.44;;;-15.30;61.54
70458;BME280;57919;56.194;95.716;2023-11-22T03:33:19;102048.63;;;-14.99;59.90
70458;BME280;57919;56.194;95.716;2023-11-22T03:43:22;102069.59;;;-14.21;59.82
70458;BME280;57919;56.194;95.716;2023-11-22T03:53:23;102072.75;;;-13.65;59.94
70458;BME280;57919;56.194;95.716;2023-11-22T04:03:27;102062.97;;;-12.88;58.63
70458;BME280;57919;56.194;95.716;2023-11-22T04:13:29;102061.34;;;-13.02;57.94
70458;BME280;57919;56.194;95.716;2023-11-22T04:23:32;102066.69;;;-12.83;58.49
70458;BME280;57919;56.194;95.716;2023-11-22T04:33:35;102052.81;;;-12.65;58.60
70458;BME280;57919;56.194;95.716;2023-11-22T04:43:37;102040.38;;;-12.71;57.56
70458;BME280;57919;56.194;95.716;2023-11-22T04:53:39;102019.41;;;-12.38;59.14
70458;BME280;57919;56.194;95.716;2023-11-22T05:03:41;102023.91;;;-11.62;57.47
70458;BME280;57919;56.194;95.716;2023-11-22T05:13:44;102011.94;;;-10.99;57.49
70458;BME280;57919;56.194;95.716;2023-11-22T05:23:46;102016.91;;;-11.24;57.23
70458;BME280;57919;56.194;95.716;2023-11-22T05:33:48;102006.47;;;-10.84;56.66
70458;BME280;57919;56.194;95.716;2023-11-22T05:43:50;101983.06;;;-9.72;54.87
70458;BME280;57919;56.194;95.716;2023-11-22T05:53:53;101980.72;;;-10.54;54.76
70458;BME280;57919;56.194;95.716;2023-11-22T06:03:55;101962.25;;;-9.92;56.96
70458;BME280;57919;56.194;95.716;2023-11-22T06:13:58;101965.03;;;-10.09;55.62
70458;BME280;57919;56.194;95.716;2023-11-22T06:24:00;101966.84;;;-10.31;56.84
70458;BME280;57919;56.194;95.716;2023-11-22T06:34:04;101954.22;;;-10.41;57.04
70458;BME280;57919;56.194;95.716;2023-11-22T06:44:06;101932.16;;;-10.48;55.98
70458;BME280;57919;56.194;95.716;2023-11-22T06:54:08;101932.66;;;-10.99;57.77
70458;BME280;57919;56.194;95.716;2023-11-22T07:04:12;101926.78;;;-11.15;57.42
70458;BME280;57919;56.194;95.716;2023-11-22T07:14:14;101916.47;;;-10.91;58.19
70458;BME280;57919;56.194;95.716;2023-11-22T07:24:16;101915.69;;;-10.67;57.58
70458;BME280;57919;56.194;95.716;2023-11-22T07:34:20;101915.34;;;-10.54;57.70
70458;BME280;57919;56.194;95.716;2023-11-22T07:44:22;101892.16;;;-10.88;57.32
70458;BME280;57919;56.194;95.716;2023-11-22T07:54:25;101887.19;;;-11.24;57.73
70458;BME280;57919;56.194;95.716;2023-11-22T08:04:27;101895.22;;;-11.19;57.54
70458;BME280;57919;56.194;95.716;2023-11-22T08:14:33;101877.38;;;-11.29;58.35
70458;BME280;57919;56.194;95.716;2023-11-22T08:24:35;101858.34;;;-9.20;57.44
70458;BME280;57919;56.194;95.716;2023-11-22T08:34:37;101862.06;;;-8.31;54.72
70458;BME280;57919;56.194;95.716;2023-11-22T08:44:39;101857.03;;;-9.07;54.89
70458;BME280;57919;56.194;95.716;2023-11-22T08:54:41;101858.97;;;-8.18;54.61
70458;BME280;57919;56.194;95.716;2023-11-22T09:04:43;101861.63;;;-7.56;53.34
70458;BME280;57919;56.194;95.716;2023-11-22T09:14:45;101853.22;;;-9.42;54.23
70458;BME280;57919;56.194;95.716;2023-11-22T09:24:47;101870.41;;;-9.74;55.72
70458;BME280;57919;56.194;95.716;2023-11-22T09:34:49;101861.38;;;-10.52;55.69
70458;BME280;57919;56.194;95.716;2023-11-22T09:44:51;101852.53;;;-11.20;56.91
70458;BME280;57919;56.194;95.716;2023-11-22T09:54:55;101836.75;;;-10.80;56.73
70458;BME280;57919;56.194;95.716;2023-11-22T10:04:58;101822.59;;;-11.28;57.05
70458;BME280;57919;56.194;95.716;2023-11-22T10:15:13;101823.34;;;-11.30;57.13
70458;BME280;57919;56.194;95.716;2023-11-22T10:25:15;101816.09;;;-11.58;57.60
70458;BME280;57919;56.194;95.716;2023-11-22T10:35:21;101817.91;;;-11.77;57.99
70458;BME280;57919;56.194;95.716;2023-11-22T10:45:26;101820.78;;;-11.91;58.47
70458;BME280;57919;56.194;95.716;2023-11-22T10:55:32;101803.56;;;-12.07;58.44
70458;BME280;57919;56.194;95.716;2023-11-22T11:05:35;101799.50;;;-12.39;58.80
70458;BME280;57919;56.194;95.716;2023-11-22T11:15:41;101786.59;;;-12.55;59.16
70458;BME280;57919;56.194;95.716;2023-11-22T11:25:57;101780.28;;;-12.60;59.07
70458;BME280;57919;56.194;95.716;2023-11-22T11:36:02;101786.34;;;-12.79;59.57
70458;BME280;57919;56.194;95.716;2023-11-22T11:46:07;101781.50;;;-13.09;59.05
70458;BME280;57919;56.194;95.716;2023-11-22T11:56:10;101772.31;;;-13.20;59.55
70458;BME280;57919;56.194;95.716;2023-11-22T12:06:16;101779.44;;;-13.33;60.04
70458;BME280;57919;56.194;95.716;2023-11-22T12:16:18;101778.31;;;-13.56;60.25
70458;BME280;57919;56.194;95.716;2023-11-22T12:26:20;101774.56;;;-13.79;60.10
70458;BME280;57919;56.194;95.716;2023-11-22T12:36:23;101769.69;;;-14.07;60.42
70458;BME280;57919;56.194;95.716;2023-11-22T12:46:25;101771.41;;;-14.24;60.25
70458;BME280;57919;56.194;95.716;2023-11-22T12:56:28;101769.97;;;-14.35;61.01
70458;BME280;57919;56.194;95.716;2023-11-22T13:06:31;101777.38;;;-14.59;61.23
70458;BME280;57919;56.194;95.716;2023-11-22T13:16:33;101781.69;;;-14.59;61.10
70458;BME280;57919;56.194;95.716;2023-11-22T13:26:36;101743.13;;;-14.84;61.48
70458;BME280;57919;56.194;95.716;2023-11-22T13:36:38;101739.78;;;-14.98;62.01
70458;BME280;57919;56.194;95.716;2023-11-22T13:46:41;101735.25;;;-14.86;63.09
70458;BME280;57919;56.194;95.716;2023-11-22T13:56:43;101707.31;;;-14.23;61.50
70458;BME280;57919;56.194;95.716;2023-11-22T14:06:45;101702.47;;;-14.84;61.49
70458;BME280;57919;56.194;95.716;2023-11-22T14:16:47;101679.88;;;-15.17;62.17
70458;BME280;57919;56.194;95.716;2023-11-22T14:26:50;101665.50;;;-15.59;62.69
70458;BME280;57919;56.194;95.716;2023-11-22T14:36:52;101668.53;;;-16.12;68.10
70458;BME280;57919;56.194;95.716;2023-11-22T14:46:55;101659.41;;;-15.91;64.18
70458;BME280;57919;56.194;95.716;2023-11-22T14:56:59;101661.47;;;-16.00;64.33
70458;BME280;57919;56.194;95.716;2023-11-22T15:07:04;101651.13;;;-16.15;64.07
70458;BME280;57919;56.194;95.716;2023-11-22T15:17:09;101637.75;;;-16.37;63.82
70458;BME280;57919;56.194;95.716;2023-11-22T15:27:11;101622.75;;;-16.43;64.09
70458;BME280;57919;56.194;95.716;2023-11-22T15:37:14;101622.47;;;-16.47;65.10
70458;BME280;57919;56.194;95.716;2023-11-22T15:47:17;101611.41;;;-16.45;64.47
70458;BME280;57919;56.194;95.716;2023-11-22T15:57:19;101602.66;;;-16.61;63.89
70458;BME280;57919;56.194;95.716;2023-11-22T16:07:21;101601.06;;;-16.89;63.94
70458;BME280;57919;56.194;95.716;2023-11-22T16:17:23;101604.63;;;-16.87;63.94
70458;BME280;57919;56.194;95.716;2023-11-22T16:27:26;101600.44;;;-16.85;64.05
70458;BME280;57919;56.194;95.716;2023-11-22T16:37:28;101601.06;;;-16.89;63.63
70458;BME280;57919;56.194;95.716;2023-11-22T16:47:30;101586.59;;;-16.85;63.29
70458;BME280;57919;56.194;95.716;2023-11-22T16:57:34;101582.94;;;-16.89;63.02
70458;BME280;57919;56.194;95.716;2023-11-22T17:07:37;101583.72;;;-17.19;63.59
70458;BME280;57919;56.194;95.716;2023-11-22T17:17:39;101579.44;;;-17.19;63.56
70458;BME280;57919;56.194;95.716;2023-11-22T17:27:41;101555.50;;;-17.72;63.54
70458;BME280;57919;56.194;95.716;2023-11-22T17:37:43;101564.94;;;-18.01;64.27
70458;BME280;57919;56.194;95.716;2023-11-22T17:47:45;101551.78;;;-17.90;64.39
70458;BME280;57919;56.194;95.716;2023-11-22T17:57:47;101549.97;;;-17.63;63.66
70458;BME280;57919;56.194;95.716;2023-11-22T18:07:49;101541.97;;;-17.68;63.83
70458;BME280;57919;56.194;95.716;2023-11-22T18:17:52;101541.50;;;-17.76;63.50
70458;BME280;57919;56.194;95.716;2023-11-22T18:27:54;101539.44;;;-17.81;63.82
70458;BME280;57919;56.194;95.716;2023-11-22T18:37:56;101537.41;;;-17.72;63.23
70458;BME280;57919;56.194;95.716;2023-11-22T18:47:58;101518.78;;;-17.81;63.52
70458;BME280;57919;56.194;95.716;2023-11-22T18:58:00;101502.91;;;-17.87;63.64
70458;BME280;57919;56.194;95.716;2023-11-22T19:08:06;101506.28;;;-17.88;64.11
70458;BME280;57919;56.194;95.716;2023-11-22T19:18:08;101493.91;;;-17.79;63.54
70458;BME280;57919;56.194;95.716;2023-11-22T19:28:11;101481.25;;;-17.89;63.54
70458;BME280;57919;56.194;95.716;2023-11-22T19:38:13;101475.59;;;-17.97;62.99
70458;BME280;57919;56.194;95.716;2023-11-22T19:48:15;101472.22;;;-17.96;63.04
70458;BME280;57919;56.194;95.716;2023-11-22T19:58:17;101478.09;;;-17.98;62.93
70458;BME280;57919;56.194;95.716;2023-11-22T20:08:20;101473.25;;;-18.07;63.26
70458;BME280;57919;56.194;95.716;2023-11-22T20:18:22;101453.09;;;-18.13;63.37
70458;BME280;57919;56.194;95.716;2023-11-22T20:28:24;101438.56;;;-18.25;62.86
70458;BME280;57919;56.194;95.716;2023-11-22T20:38:26;101424.03;;;-18.51;63.70
70458;BME280;57919;56.194;95.716;2023-11-22T20:48:28;101420.75;;;-18.49;63.64
70458;BME280;57919;56.194;95.716;2023-11-22T20:58:31;101409.84;;;-18.58;63.22
70458;BME280;57919;56.194;95.716;2023-11-22T21:08:34;101419.34;;;-18.44;63.47
70458;BME280;57919;56.194;95.716;2023-11-22T21:18:36;101413.09;;;-18.47;63.28
70458;BME280;57919;56.194;95.716;2023-11-22T21:28:39;101414.28;;;-18.42;63.42
70458;BME280;57919;56.194;95.716;2023-11-22T21:38:43;101405.41;;;-18.33;63.17
70458;BME280;57919;56.194;95.716;2023-11-22T21:48:45;101386.91;;;-18.53;62.83
70458;BME280;57919;56.194;95.716;2023-11-22T21:58:47;101375.66;;;-18.69;63.47
70458;BME280;57919;56.194;95.716;2023-11-22T22:08:49;101360.13;;;-18.83;63.44
70458;BME280;57919;56.194;95.716;2023-11-22T22:18:51;101357.84;;;-18.79;63.32
70458;BME280;57919;56.194;95.716;2023-11-22T22:28:53;101351.69;;;-18.81;63.60
70458;BME280;57919;56.194;95.716;2023-11-22T22:38:55;101343.84;;;-18.82;63.19
70458;BME280;57919;56.194;95.716;2023-11-22T22:48:58;101329.88;;;-18.86;63.29
70458;BME280;57919;56.194;95.716;2023-11-22T22:59:00;101328.78;;;-18.89;63.03
70458;BME280;57919;56.194;95.716;2023-11-22T23:09:03;101330.16;;;-18.81;62.89
70458;BME280;57919;56.194;95.716;2023-11-22T23:19:05;101337.81;;;-18.83;62.52
70458;BME280;57919;56.194;95.716;2023-11-22T23:29:08;101315.53;;;-19.09;62.45
70458;BME280;57919;56.194;95.716;2023-11-22T23:39:10;101311.19;;;-19.23;63.20
70458;BME280;57919;56.194;95.716;2023-11-22T23:49:14;101315.47;;;-19.37;63.05
70458;BME280;57919;56.194;95.716;2023-11-22T23:59:16;101340.25;;;-19.39;62.83
